Time;durP1;ratioP1;P1;durP2;ratioP2;P2;SDS_P1;SDS_P2;PMS_P1;PMS_P2;Temp;Humidity;BMP_temperature;BMP_pressure;BME280_temperature;BME280_humidity;BME280_pressure;Samples;Min_cycle;Max_cycle;Signal;HPM_P1;HPM_P2
2023/06/15 00:00:45;;;;;;;3.28;1.92;;;15.90;99.90;;;;;;5056567;28;20404;-86
2023/06/15 00:03:11;;;;;;;6.40;1.88;;;15.90;99.90;;;;;;5041078;28;20051;-86
2023/06/15 00:05:37;;;;;;;4.32;1.90;;;15.90;99.90;;;;;;5060049;28;20135;-85
2023/06/15 00:08:03;;;;;;;4.25;1.52;;;15.90;99.90;;;;;;5043351;28;20491;-85
2023/06/15 00:10:29;;;;;;;3.85;1.60;;;15.90;99.90;;;;;;5042575;28;20041;-85
2023/06/15 00:12:55;;;;;;;5.72;2.17;;;15.10;99.90;;;;;;5026955;28;20044;-84
2023/06/15 00:15:21;;;;;;;5.95;1.98;;;15.80;99.90;;;;;;5041939;28;20033;-85
2023/06/15 00:17:46;;;;;;;5.32;1.65;;;15.80;99.90;;;;;;5071071;28;20367;-85
2023/06/15 00:20:13;;;;;;;6.75;2.15;;;15.80;99.90;;;;;;5054538;28;20080;-85
2023/06/15 00:22:41;;;;;;;2.58;1.83;;;15.70;99.90;;;;;;5052245;28;20044;-85
2023/06/15 00:25:07;;;;;;;3.75;2.00;;;15.80;99.90;;;;;;5035712;28;20048;-86
2023/06/15 00:27:38;;;;;;;4.07;1.77;;;15.70;99.90;;;;;;5055334;28;20032;-86
2023/06/15 00:30:05;;;;;;;4.03;2.70;;;15.70;99.90;;;;;;5002782;28;20621;-85
2023/06/15 00:32:31;;;;;;;4.80;1.88;;;15.70;99.90;;;;;;5018506;28;20044;-86
2023/06/15 00:34:57;;;;;;;6.80;2.08;;;15.70;99.90;;;;;;5069336;28;20072;-86
2023/06/15 00:37:23;;;;;;;5.95;2.00;;;15.60;99.90;;;;;;5050717;28;20090;-85
2023/06/15 00:39:48;;;;;;;2.70;1.65;;;15.60;99.90;;;;;;5051706;28;20101;-85
2023/06/15 00:42:14;;;;;;;4.53;1.75;;;15.60;99.90;;;;;;5050463;28;20040;-85
2023/06/15 00:44:40;;;;;;;4.10;1.77;;;15.50;99.90;;;;;;5033826;28;20047;-86
2023/06/15 00:47:06;;;;;;;6.15;1.77;;;15.50;99.90;;;;;;5050847;28;20079;-84
2023/06/15 00:49:33;;;;;;;8.20;2.40;;;15.50;99.90;;;;;;5001096;28;20037;-86
2023/06/15 00:52:00;;;;;;;2.75;1.52;;;15.50;99.90;;;;;;5034057;28;20056;-85
2023/06/15 00:54:27;;;;;;;4.22;2.00;;;15.50;99.90;;;;;;5016922;28;20044;-87
2023/06/15 00:56:54;;;;;;;4.10;1.67;;;15.50;99.90;;;;;;5050674;28;20135;-86
2023/06/15 00:59:20;;;;;;;3.72;1.70;;;15.40;99.90;;;;;;5017301;28;20040;-86
2023/06/15 01:01:54;;;;;;;3.97;1.95;;;15.40;99.90;;;;;;5032461;28;20041;-85
2023/06/15 01:04:26;;;;;;;3.75;1.95;;;15.40;99.90;;;;;;5050841;28;20111;-86
2023/06/15 01:07:01;;;;;;;4.50;2.55;;;15.40;99.90;;;;;;5049357;28;20067;-86
2023/06/15 01:09:30;;;;;;;4.13;1.95;;;15.40;99.90;;;;;;5034279;28;20050;-84
2023/06/15 01:11:58;;;;;;;4.18;2.63;;;15.30;99.90;;;;;;5048953;28;20040;-84
2023/06/15 01:14:26;;;;;;;4.43;1.80;;;15.30;99.90;;;;;;5067872;28;20080;-84
2023/06/15 01:16:58;;;;;;;4.45;2.00;;;15.30;99.90;;;;;;5034942;28;20489;-84
2023/06/15 01:19:38;;;;;;;4.43;1.90;;;15.20;99.90;;;;;;5051052;28;20106;-85
2023/06/15 01:22:24;;;;;;;4.75;2.10;;;15.20;99.90;;;;;;5053053;28;20052;-85
2023/06/15 01:25:29;;;;;;;7.25;2.30;;;15.20;99.90;;;;;;5067462;28;20385;-85
2023/06/15 01:28:03;;;;;;;4.68;1.90;;;15.20;99.90;;;;;;5050693;28;20092;-84
2023/06/15 01:30:33;;;;;;;4.80;2.10;;;15.20;99.90;;;;;;5049638;28;20044;-84
2023/06/15 01:32:59;;;;;;;5.13;1.95;;;15.20;99.90;;;;;;5032807;28;20040;-84
2023/06/15 01:35:25;;;;;;;2.40;1.70;;;15.10;99.90;;;;;;5049363;28;20041;-85
2023/06/15 01:37:51;;;;;;;3.53;1.90;;;15.10;99.90;;;;;;5048495;28;20052;-85
2023/06/15 01:40:17;;;;;;;5.50;2.20;;;15.10;99.90;;;;;;5066696;28;20036;-84
2023/06/15 01:42:44;;;;;;;2.97;2.17;;;15.10;99.90;;;;;;5067157;28;20067;-84
2023/06/15 01:45:11;;;;;;;5.60;2.35;;;15.10;99.90;;;;;;5031578;28;20493;-84
2023/06/15 01:47:39;;;;;;;5.55;2.33;;;15.00;99.90;;;;;;5049084;28;20045;-84
2023/06/15 01:50:07;;;;;;;3.63;2.33;;;15.00;99.90;;;;;;5015763;28;20123;-84
2023/06/15 01:52:33;;;;;;;6.63;2.40;;;15.00;99.90;;;;;;5048972;28;20052;-85
2023/06/15 01:54:58;;;;;;;5.25;2.60;;;14.90;99.90;;;;;;5031960;28;20501;-85
2023/06/15 01:57:24;;;;;;;4.13;2.40;;;14.90;99.90;;;;;;5014544;28;20052;-85
2023/06/15 01:59:54;;;;;;;5.80;2.17;;;14.90;99.90;;;;;;5048563;28;20120;-84
2023/06/15 02:02:20;;;;;;;5.18;2.47;;;14.90;99.90;;;;;;5031603;28;20036;-85
2023/06/15 02:04:46;;;;;;;3.60;2.40;;;14.90;99.90;;;;;;5031918;28;20040;-85
2023/06/15 02:07:12;;;;;;;5.50;2.40;;;14.80;99.90;;;;;;5048430;28;20036;-85
2023/06/15 02:09:37;;;;;;;2.88;1.80;;;14.80;99.90;;;;;;5048810;28;20098;-85
2023/06/15 02:12:03;;;;;;;7.68;3.33;;;14.80;99.90;;;;;;5014984;28;20067;-85
2023/06/15 02:14:29;;;;;;;4.00;2.20;;;14.70;99.90;;;;;;4998291;28;20139;-84
2023/06/15 02:16:58;;;;;;;4.22;2.22;;;14.70;99.90;;;;;;5000166;28;20047;-84
2023/06/15 02:19:24;;;;;;;7.13;2.17;;;14.70;99.90;;;;;;4999689;28;20044;-84
2023/06/15 02:21:50;;;;;;;5.32;2.58;;;14.70;99.90;;;;;;5031889;28;20040;-84
2023/06/15 02:24:17;;;;;;;4.72;2.20;;;14.70;99.90;;;;;;5030053;28;20036;-84
2023/06/15 02:26:44;;;;;;;7.85;2.38;;;14.60;99.90;;;;;;5015455;28;20044;-84
2023/06/15 02:29:10;;;;;;;7.32;2.47;;;14.60;99.90;;;;;;5048445;28;20397;-84
2023/06/15 02:31:37;;;;;;;4.13;2.45;;;14.60;99.90;;;;;;5014638;28;20094;-84
2023/06/15 02:34:03;;;;;;;5.05;2.00;;;14.60;99.90;;;;;;5015654;28;20090;-85
2023/06/15 02:36:28;;;;;;;5.80;2.63;;;14.60;99.90;;;;;;5030928;28;20049;-85
2023/06/15 02:38:55;;;;;;;4.47;2.50;;;14.50;99.90;;;;;;5015437;28;20044;-85
2023/06/15 02:41:20;;;;;;;5.80;2.45;;;14.50;99.90;;;;;;5031633;28;20044;-85
2023/06/15 02:43:46;;;;;;;7.78;3.10;;;14.50;99.90;;;;;;5048297;28;20097;-85
2023/06/15 02:46:12;;;;;;;2.33;1.73;;;14.50;99.90;;;;;;5031541;28;20093;-85
2023/06/15 02:48:37;;;;;;;3.80;2.75;;;14.40;99.90;;;;;;5030738;28;20485;-85
2023/06/15 02:51:03;;;;;;;6.18;2.75;;;14.40;99.90;;;;;;5015300;28;20056;-85
2023/06/15 02:53:29;;;;;;;5.78;2.72;;;14.40;99.90;;;;;;5065682;28;20053;-85
2023/06/15 02:55:56;;;;;;;5.60;2.38;;;14.90;99.90;;;;;;5031841;28;20044;-84
2023/06/15 02:58:24;;;;;;;3.35;2.38;;;14.40;99.90;;;;;;5030835;28;20045;-85
2023/06/15 03:00:51;;;;;;;5.35;2.72;;;14.30;99.90;;;;;;5047715;28;20122;-85
2023/06/15 03:03:22;;;;;;;4.78;2.65;;;14.30;99.90;;;;;;5047426;28;20040;-82
2023/06/15 03:05:48;;;;;;;3.58;2.65;;;14.30;99.90;;;;;;5031193;28;20040;-84
2023/06/15 03:08:15;;;;;;;4.90;2.55;;;14.30;99.90;;;;;;5030499;28;20519;-83
2023/06/15 03:10:41;;;;;;;2.90;2.40;;;14.30;99.90;;;;;;5046814;28;20127;-83
2023/06/15 03:13:06;;;;;;;5.03;2.63;;;14.30;99.90;;;;;;5047601;28;20091;-83
2023/06/15 03:15:32;;;;;;;6.65;2.45;;;14.30;99.90;;;;;;5030317;28;20036;-83
2023/06/15 03:17:58;;;;;;;3.95;1.95;;;14.20;99.90;;;;;;5047992;28;20045;-83
2023/06/15 03:20:24;;;;;;;5.88;2.67;;;14.30;99.90;;;;;;5031086;28;20091;-84
2023/06/15 03:22:50;;;;;;;5.72;2.85;;;14.30;99.90;;;;;;5032098;28;20080;-84
2023/06/15 03:25:16;;;;;;;3.38;2.38;;;14.30;99.90;;;;;;5071716;28;20048;-84
2023/06/15 03:27:42;;;;;;;6.13;2.85;;;14.20;99.90;;;;;;5069167;28;20051;-84
2023/06/15 03:30:10;;;;;;;5.10;2.47;;;14.20;99.90;;;;;;5056148;28;20052;-84
2023/06/15 03:32:37;;;;;;;4.95;2.53;;;14.20;99.90;;;;;;5037202;28;20420;-84
2023/06/15 03:35:04;;;;;;;6.25;2.58;;;14.10;99.90;;;;;;5035458;28;20049;-84
2023/06/15 03:37:29;;;;;;;8.70;2.65;;;14.10;99.90;;;;;;5050544;28;20084;-84
2023/06/15 03:39:55;;;;;;;4.13;2.75;;;14.10;99.90;;;;;;5033974;28;20044;-84
2023/06/15 03:42:21;;;;;;;6.50;2.78;;;14.10;99.90;;;;;;5069857;28;20045;-85
2023/06/15 03:44:46;;;;;;;5.60;3.30;;;14.10;99.90;;;;;;5050796;28;20048;-83
2023/06/15 03:47:12;;;;;;;5.28;3.13;;;14.10;99.90;;;;;;5074362;28;20044;-84
2023/06/15 03:49:38;;;;;;;4.57;2.50;;;14.20;99.90;;;;;;5038982;28;20032;-83
2023/06/15 03:52:04;;;;;;;4.65;2.20;;;14.10;99.90;;;;;;5051850;28;20071;-83
2023/06/15 03:54:30;;;;;;;4.82;2.70;;;14.20;99.90;;;;;;5031331;28;20145;-84
2023/06/15 03:56:55;;;;;;;4.47;2.25;;;14.10;99.90;;;;;;5046992;28;20110;-84
2023/06/15 03:59:23;;;;;;;4.18;2.80;;;14.20;99.90;;;;;;5047138;28;20051;-84
2023/06/15 04:01:49;;;;;;;4.70;2.47;;;14.20;99.90;;;;;;5045848;28;20543;-83
2023/06/15 04:04:15;;;;;;;3.85;2.47;;;14.20;99.90;;;;;;5014025;28;20040;-84
2023/06/15 04:06:45;;;;;;;3.80;2.47;;;14.20;99.90;;;;;;5029468;28;20047;-84
2023/06/15 04:09:13;;;;;;;5.47;3.10;;;14.20;99.90;;;;;;5065371;28;20708;-84
2023/06/15 04:11:40;;;;;;;6.63;3.67;;;14.20;99.90;;;;;;5013614;28;20048;-83
2023/06/15 04:14:05;;;;;;;4.78;2.97;;;14.30;99.90;;;;;;5046142;28;20556;-84
2023/06/15 04:16:31;;;;;;;6.85;3.08;;;14.30;99.90;;;;;;5064789;28;20041;-84
2023/06/15 04:18:57;;;;;;;4.60;2.60;;;13.80;99.90;;;;;;5045906;28;20115;-85
2023/06/15 04:21:22;;;;;;;3.13;2.58;;;14.40;99.90;;;;;;5030077;28;20041;-85
2023/06/15 04:23:48;;;;;;;5.72;2.83;;;14.50;99.90;;;;;;5013409;28;20040;-85
2023/06/15 04:26:14;;;;;;;3.05;2.10;;;14.50;99.90;;;;;;5046719;28;20377;-84
2023/06/15 04:28:39;;;;;;;3.28;2.28;;;14.60;99.90;;;;;;5045730;28;20044;-84
2023/06/15 04:31:10;;;;;;;5.53;2.85;;;14.60;99.90;;;;;;5012975;28;20040;-84
2023/06/15 04:33:42;;;;;;;5.97;3.53;;;14.70;99.90;;;;;;5030214;28;20512;-83
2023/06/15 04:36:12;;;;;;;7.97;3.40;;;14.80;99.90;;;;;;5044923;28;20048;-83
2023/06/15 04:38:46;;;;;;;7.68;3.35;;;14.80;99.90;;;;;;5030279;28;20515;-84
2023/06/15 04:41:12;;;;;;;5.60;2.92;;;15.00;99.90;;;;;;5030711;28;20071;-94
2023/06/15 04:43:38;;;;;;;6.05;3.70;;;15.00;99.90;;;;;;5016359;28;20123;-89
2023/06/15 04:46:03;;;;;;;3.92;2.80;;;15.10;99.90;;;;;;5006310;28;20711;-89
2023/06/15 04:48:29;;;;;;;5.28;3.10;;;15.20;99.90;;;;;;4976470;28;20076;-83
2023/06/15 04:50:56;;;;;;;7.47;3.05;;;15.30;99.90;;;;;;5025667;28;20488;-85
2023/06/15 04:53:22;;;;;;;9.25;3.22;;;15.40;99.90;;;;;;4960183;28;20041;-85
2023/06/15 04:55:50;;;;;;;6.57;3.22;;;15.40;99.90;;;;;;4992816;28;20596;-86
2023/06/15 04:58:17;;;;;;;4.68;3.65;;;15.50;99.90;;;;;;5024937;28;20140;-86
2023/06/15 05:00:43;;;;;;;5.10;2.95;;;15.60;99.90;;;;;;4977412;28;20566;-87
2023/06/15 05:03:10;;;;;;;10.10;2.78;;;15.70;99.90;;;;;;5024882;28;20041;-84
2023/06/15 05:05:36;;;;;;;4.93;3.22;;;15.70;99.90;;;;;;5008606;28;20413;-85
2023/06/15 05:08:02;;;;;;;6.78;3.55;;;15.80;99.90;;;;;;4975295;28;20045;-85
2023/06/15 05:10:28;;;;;;;8.48;3.03;;;15.90;99.90;;;;;;5007933;28;20084;-84
2023/06/15 05:12:54;;;;;;;6.40;3.33;;;16.00;99.90;;;;;;5009427;28;20041;-84
2023/06/15 05:15:20;;;;;;;4.53;3.05;;;16.10;99.90;;;;;;5024369;28;20509;-86
2023/06/15 05:17:46;;;;;;;5.40;2.60;;;16.20;99.90;;;;;;4993204;28;20052;-86
2023/06/15 05:20:13;;;;;;;3.72;2.30;;;16.30;99.90;;;;;;5049304;28;20048;-83
2023/06/15 05:22:39;;;;;;;9.82;3.08;;;16.40;99.90;;;;;;5049027;28;20090;-83
2023/06/15 05:25:05;;;;;;;11.57;3.25;;;16.50;99.90;;;;;;5067392;28;20076;-83
2023/06/15 05:27:35;;;;;;;8.05;2.92;;;16.60;99.90;;;;;;5048397;28;20047;-88
2023/06/15 05:30:01;;;;;;;7.05;2.72;;;16.70;99.90;;;;;;5020192;28;20048;-84
2023/06/15 05:32:27;;;;;;;6.45;2.40;;;16.80;99.90;;;;;;5031709;28;20041;-84
2023/06/15 05:34:53;;;;;;;6.75;2.95;;;16.80;99.90;;;;;;5033233;28;20044;-85
2023/06/15 05:37:19;;;;;;;4.55;2.22;;;17.00;99.90;;;;;;5031789;28;20045;-84
2023/06/15 05:39:46;;;;;;;3.10;2.10;;;17.10;99.90;;;;;;5032229;28;20040;-84
2023/06/15 05:42:11;;;;;;;4.45;2.45;;;17.20;99.90;;;;;;5032135;28;20266;-85
2023/06/15 05:44:37;;;;;;;5.78;2.75;;;17.20;99.90;;;;;;5051823;28;20273;-92
2023/06/15 05:47:03;;;;;;;9.00;2.25;;;17.40;99.90;;;;;;5000804;28;20045;-87
2023/06/15 05:49:29;;;;;;;5.65;2.53;;;17.50;99.90;;;;;;5015416;28;20045;-88
2023/06/15 05:51:55;;;;;;;3.38;2.20;;;17.50;99.90;;;;;;5014899;28;20049;-84
2023/06/15 05:54:21;;;;;;;11.38;3.17;;;17.60;99.90;;;;;;4996159;28;20055;-88
2023/06/15 05:56:47;;;;;;;3.13;2.10;;;17.70;99.90;;;;;;4997012;28;20055;-93
2023/06/15 05:59:13;;;;;;;4.55;2.72;;;17.80;99.90;;;;;;4996006;28;20494;-88
2023/06/15 06:01:40;;;;;;;7.68;2.47;;;17.90;99.90;;;;;;5012074;28;20264;-89
2023/06/15 06:04:05;;;;;;;2.60;1.98;;;17.90;99.90;;;;;;4996496;28;20079;-89
2023/06/15 06:06:31;;;;;;;2.83;1.83;;;18.00;99.90;;;;;;4979829;28;20072;-89
2023/06/15 06:08:57;;;;;;;2.92;2.15;;;18.10;99.90;;;;;;4980639;28;20048;-89
2023/06/15 06:11:22;;;;;;;4.30;2.15;;;18.20;99.90;;;;;;5011491;28;20049;-90
2023/06/15 06:13:48;;;;;;;3.45;1.73;;;18.30;99.90;;;;;;5029263;28;20041;-90
2023/06/15 06:16:14;;;;;;;7.63;2.03;;;18.40;99.90;;;;;;4995984;28;20136;-89
2023/06/15 06:18:40;;;;;;;2.97;2.33;;;18.50;99.90;;;;;;4979762;28;20387;-89
2023/06/15 06:21:06;;;;;;;3.50;1.83;;;18.70;99.90;;;;;;4979442;28;20102;-90
2023/06/15 06:23:32;;;;;;;7.28;1.80;;;18.80;99.90;;;;;;4978775;28;20052;-89
2023/06/15 06:25:58;;;;;;;5.30;1.65;;;18.90;99.90;;;;;;4979782;28;20047;-89
2023/06/15 06:28:24;;;;;;;4.35;1.55;;;19.00;99.90;;;;;;4977984;28;20128;-89
2023/06/15 06:30:50;;;;;;;6.28;1.83;;;19.10;99.90;;;;;;5012734;28;20045;-88
2023/06/15 06:33:16;;;;;;;8.95;2.58;;;19.30;99.90;;;;;;5011401;28;20132;-89
2023/06/15 06:35:41;;;;;;;9.57;1.90;;;19.40;99.90;;;;;;5013986;28;20108;-89
2023/06/15 06:38:07;;;;;;;4.63;1.65;;;19.50;99.90;;;;;;4995374;28;20409;-90
2023/06/15 06:40:33;;;;;;;8.18;2.08;;;19.60;99.90;;;;;;5012148;28;20037;-89
2023/06/15 06:42:59;;;;;;;3.78;1.83;;;19.80;99.90;;;;;;4995531;28;20055;-89
2023/06/15 06:45:24;;;;;;;3.03;1.60;;;19.90;99.90;;;;;;4978991;28;20126;-89
2023/06/15 06:47:50;;;;;;;3.75;1.25;;;20.00;99.80;;;;;;5012719;28;20461;-89
2023/06/15 06:50:16;;;;;;;4.40;1.58;;;20.10;99.30;;;;;;5014980;28;20074;-89
2023/06/15 06:52:44;;;;;;;4.30;1.80;;;20.20;98.90;;;;;;4999213;28;20129;-89
2023/06/15 06:55:10;;;;;;;5.13;1.63;;;20.30;98.50;;;;;;5015740;28;20048;-89
2023/06/15 06:57:38;;;;;;;3.22;1.90;;;20.40;98.20;;;;;;5032045;28;20572;-89
2023/06/15 07:00:06;;;;;;;4.07;1.45;;;20.50;98.00;;;;;;5003916;28;20072;-89
2023/06/15 07:02:32;;;;;;;4.55;1.45;;;20.60;97.60;;;;;;5021504;28;20439;-89
2023/06/15 07:04:58;;;;;;;2.35;1.33;;;20.70;97.40;;;;;;5023274;28;20040;-89
2023/06/15 07:07:24;;;;;;;4.40;1.30;;;20.80;96.80;;;;;;5038239;28;20528;-89
2023/06/15 07:09:50;;;;;;;4.43;1.33;;;20.90;96.50;;;;;;5038686;28;20093;-89
2023/06/15 07:12:15;;;;;;;4.97;1.45;;;21.00;96.40;;;;;;5035123;28;20044;-89
2023/06/15 07:14:41;;;;;;;3.60;1.30;;;21.00;96.20;;;;;;5017873;28;20040;-89
2023/06/15 07:17:07;;;;;;;5.18;1.80;;;21.10;96.20;;;;;;5030708;28;20127;-89
2023/06/15 07:19:33;;;;;;;5.25;1.42;;;21.30;96.00;;;;;;5014458;28;20048;-89
2023/06/15 07:21:58;;;;;;;2.25;1.40;;;21.40;95.70;;;;;;5015311;28;20040;-89
2023/06/15 07:24:24;;;;;;;3.70;1.33;;;21.40;95.70;;;;;;4998081;28;20087;-89
2023/06/15 07:26:50;;;;;;;2.25;1.55;;;21.50;95.20;;;;;;5048204;28;20489;-89
2023/06/15 07:29:15;;;;;;;3.95;1.67;;;21.60;94.70;;;;;;5030112;28;20087;-88
2023/06/15 07:31:41;;;;;;;4.07;1.38;;;21.80;94.30;;;;;;5048193;28;20082;-88
2023/06/15 07:34:07;;;;;;;2.75;1.17;;;21.80;93.90;;;;;;5013581;28;20060;-89
2023/06/15 07:36:32;;;;;;;5.13;1.50;;;21.90;93.50;;;;;;5030909;28;20072;-89
2023/06/15 07:38:58;;;;;;;2.65;1.38;;;22.00;93.20;;;;;;4998011;28;20109;-88
2023/06/15 07:41:24;;;;;;;2.17;1.13;;;22.10;92.60;;;;;;5030460;28;20135;-88
2023/06/15 07:43:55;;;;;;;1.38;0.80;;;22.20;92.30;;;;;;5016436;28;20045;-88
2023/06/15 07:46:21;;;;;;;5.75;1.20;;;22.20;92.40;;;;;;5012736;28;20054;-88
2023/06/15 07:48:47;;;;;;;3.38;1.52;;;22.40;92.20;;;;;;5031453;28;20048;-88
2023/06/15 07:51:12;;;;;;;3.00;1.23;;;22.40;91.80;;;;;;5029187;28;20048;-89
2023/06/15 07:53:39;;;;;;;2.97;1.30;;;22.50;91.30;;;;;;5030354;28;20051;-88
2023/06/15 07:56:04;;;;;;;4.18;1.58;;;22.60;91.20;;;;;;4996713;28;20084;-88
2023/06/15 07:58:30;;;;;;;2.72;1.27;;;22.80;90.80;;;;;;5012795;28;20141;-88
2023/06/15 08:00:56;;;;;;;1.48;1.15;;;22.80;90.30;;;;;;5046516;28;20075;-89
2023/06/15 08:03:22;;;;;;;2.42;1.17;;;22.90;90.10;;;;;;5029241;28;20080;-89
2023/06/15 08:05:48;;;;;;;2.58;1.52;;;23.00;89.70;;;;;;5014914;28;20052;-89
2023/06/15 08:08:13;;;;;;;3.42;1.42;;;23.10;89.60;;;;;;5029420;28;20045;-89
2023/06/15 08:10:39;;;;;;;1.98;1.25;;;23.20;88.20;;;;;;5015436;28;20136;-91
2023/06/15 08:13:06;;;;;;;2.97;1.60;;;23.30;87.50;;;;;;4999527;28;20041;-89
2023/06/15 08:15:33;;;;;;;2.28;1.17;;;23.30;87.10;;;;;;5029995;28;20059;-86
2023/06/15 08:17:59;;;;;;;2.67;1.38;;;23.40;87.30;;;;;;5029848;28;20528;-86
2023/06/15 08:20:26;;;;;;;2.40;1.20;;;23.50;86.80;;;;;;5029025;28;20040;-86
2023/06/15 08:22:54;;;;;;;3.28;1.33;;;23.60;86.30;;;;;;5049471;28;20443;-86
2023/06/15 08:25:20;;;;;;;1.80;1.15;;;23.60;85.30;;;;;;5032263;28;20044;-87
2023/06/15 08:27:45;;;;;;;3.85;1.70;;;23.70;85.40;;;;;;5018207;28;20393;-87
2023/06/15 08:30:12;;;;;;;2.72;1.52;;;23.90;84.80;;;;;;5015991;28;20040;-86
2023/06/15 08:32:38;;;;;;;2.13;1.40;;;24.00;84.00;;;;;;5034408;28;20059;-86
2023/06/15 08:35:04;;;;;;;2.60;1.33;;;24.10;83.10;;;;;;5015889;28;20048;-86
2023/06/15 08:37:30;;;;;;;3.50;1.20;;;24.20;82.40;;;;;;5017399;28;20051;-86
2023/06/15 08:39:56;;;;;;;2.53;1.40;;;24.30;82.00;;;;;;5016929;28;20575;-86
2023/06/15 08:42:25;;;;;;;4.05;1.15;;;24.30;80.80;;;;;;5048982;28;20603;-85
2023/06/15 08:44:53;;;;;;;3.88;1.42;;;24.40;80.10;;;;;;5002162;28;20550;-86
2023/06/15 08:47:19;;;;;;;3.20;1.67;;;24.40;79.40;;;;;;5032208;28;20113;-86
2023/06/15 08:49:46;;;;;;;4.63;1.70;;;24.50;78.80;;;;;;5016635;28;20072;-86
2023/06/15 08:52:13;;;;;;;2.10;1.02;;;24.40;77.20;;;;;;5032012;28;20091;-86
2023/06/15 08:54:42;;;;;;;5.10;1.40;;;24.40;76.80;;;;;;5016124;28;20140;-86
2023/06/15 08:57:08;;;;;;;3.33;1.48;;;24.50;76.60;;;;;;5016313;28;20079;-86
2023/06/15 08:59:35;;;;;;;2.55;1.10;;;24.60;75.30;;;;;;5032345;28;20049;-86
2023/06/15 09:02:03;;;;;;;6.43;1.23;;;24.70;75.20;;;;;;5033928;28;20460;-87
2023/06/15 09:04:31;;;;;;;7.43;1.90;;;24.80;75.30;;;;;;5031988;28;20079;-86
2023/06/15 09:07:00;;;;;;;2.00;1.35;;;24.90;74.60;;;;;;5033061;28;20040;-87
2023/06/15 09:09:26;;;;;;;6.03;1.70;;;25.10;73.90;;;;;;4999744;28;20047;-86
2023/06/15 09:11:54;;;;;;;6.10;1.60;;;25.10;73.60;;;;;;5034698;28;20485;-90
2023/06/15 09:14:20;;;;;;;7.13;2.08;;;25.10;71.90;;;;;;5019168;28;20044;-89
2023/06/15 09:16:50;;;;;;;6.78;1.85;;;25.10;71.90;;;;;;5015734;28;20044;-90
2023/06/15 09:19:16;;;;;;;4.03;1.73;;;24.70;71.30;;;;;;5063873;28;20131;-90
2023/06/15 09:21:49;;;;;;;2.70;1.30;;;25.20;71.20;;;;;;5030384;28;20066;-90
2023/06/15 09:24:18;;;;;;;2.15;1.20;;;25.30;71.00;;;;;;5022803;28;20059;-89
2023/06/15 09:26:47;;;;;;;1.48;1.17;;;25.30;70.90;;;;;;5051301;28;20102;-90
2023/06/15 09:29:13;;;;;;;2.42;1.38;;;25.40;70.70;;;;;;5040353;28;20048;-89
2023/06/15 09:31:40;;;;;;;4.00;1.50;;;25.50;70.70;;;;;;5009039;28;20105;-90
2023/06/15 09:34:09;;;;;;;3.45;1.60;;;25.60;69.60;;;;;;5034400;28;20123;-90
2023/06/15 09:36:41;;;;;;;3.13;1.40;;;25.70;68.20;;;;;;5051397;28;20047;-89
2023/06/15 09:39:12;;;;;;;4.53;1.55;;;25.80;67.80;;;;;;5059797;28;20409;-90
2023/06/15 09:41:58;;;;;;;2.40;1.13;;;25.80;66.80;;;;;;5034536;28;20177;-90
2023/06/15 09:44:25;;;;;;;3.05;1.20;;;25.90;65.70;;;;;;5033626;28;20135;-89
2023/06/15 09:46:58;;;;;;;4.93;1.52;;;26.00;66.30;;;;;;5050927;28;20401;-90
2023/06/15 09:49:25;;;;;;;6.53;1.90;;;26.00;65.40;;;;;;5032862;28;20125;-84
2023/06/15 09:51:52;;;;;;;3.72;1.35;;;26.10;65.50;;;;;;5048622;28;20477;-90
2023/06/15 09:54:22;;;;;;;2.80;1.40;;;26.20;66.10;;;;;;5016817;28;20131;-89
2023/06/15 09:56:52;;;;;;;2.92;1.50;;;26.30;65.60;;;;;;5015355;28;20051;-89
2023/06/15 09:59:19;;;;;;;4.68;1.70;;;26.40;65.20;;;;;;5049082;28;20040;-90
2023/06/15 10:01:47;;;;;;;2.88;1.25;;;26.40;65.00;;;;;;5015641;28;20048;-91
2023/06/15 10:04:16;;;;;;;3.35;1.20;;;26.50;64.30;;;;;;5032317;28;20071;-89
2023/06/15 10:06:45;;;;;;;2.85;1.70;;;26.60;63.50;;;;;;5049358;28;20404;-90
2023/06/15 10:09:15;;;;;;;4.05;1.65;;;26.70;63.00;;;;;;5031633;28;20123;-89
2023/06/15 10:11:43;;;;;;;2.25;1.20;;;26.70;63.00;;;;;;5016720;28;20094;-89
2023/06/15 10:14:09;;;;;;;1.27;0.93;;;26.70;61.90;;;;;;5029884;28;20136;-89
2023/06/15 10:16:39;;;;;;;2.13;1.10;;;26.80;60.30;;;;;;5048623;28;20544;-88
2023/06/15 10:19:11;;;;;;;2.35;0.93;;;26.80;59.00;;;;;;5031462;28;20055;-88
2023/06/15 10:21:40;;;;;;;2.00;1.33;;;26.80;58.60;;;;;;5016310;28;20485;-88
2023/06/15 10:24:12;;;;;;;3.33;1.10;;;26.90;59.00;;;;;;5033424;28;20037;-84
2023/06/15 10:26:40;;;;;;;4.38;1.20;;;27.00;58.30;;;;;;5030377;28;20047;-86
2023/06/15 10:29:16;;;;;;;4.28;1.65;;;27.00;57.90;;;;;;5047719;28;20060;-88
2023/06/15 10:32:02;;;;;;;5.88;1.40;;;27.00;57.20;;;;;;5046787;28;20064;-87
2023/06/15 10:35:17;;;;;;;5.00;1.35;;;27.10;56.00;;;;;;5047606;28;20045;-91
2023/06/15 10:38:18;;;;;;;4.55;1.60;;;27.10;55.00;;;;;;5048864;28;20105;-91
2023/06/15 11:56:49;;;;;;;1.10;0.90;;;28.20;54.40;;;;;;5136728;27;20420;-85
2023/06/15 11:59:16;;;;;;;2.13;1.60;;;28.80;50.90;;;;;;5120773;28;20114;-87
2023/06/15 12:01:42;;;;;;;2.38;1.48;;;28.80;51.50;;;;;;5130458;28;20142;-87
2023/06/15 12:04:18;;;;;;;2.63;1.38;;;28.90;52.00;;;;;;5128910;28;20462;-86
2023/06/15 12:06:45;;;;;;;2.30;1.40;;;29.00;52.00;;;;;;5094339;28;20096;-87
2023/06/15 12:09:12;;;;;;;1.60;1.30;;;27.60;50.00;;;;;;5128348;28;20118;-87
2023/06/15 12:11:38;;;;;;;3.85;1.63;;;29.00;50.80;;;;;;5127375;28;20035;-85
2023/06/15 12:14:11;;;;;;;2.55;1.58;;;29.00;50.60;;;;;;5111015;28;20174;-86
2023/06/15 12:16:38;;;;;;;4.30;2.33;;;29.00;50.00;;;;;;5128263;28;20116;-88
2023/06/15 12:19:08;;;;;;;3.67;1.40;;;29.10;50.50;;;;;;5127697;28;20122;-88
2023/06/15 12:21:39;;;;;;;3.47;1.92;;;29.20;51.20;;;;;;5112080;28;20517;-88
2023/06/15 12:24:20;;;;;;;3.00;1.60;;;29.20;50.50;;;;;;5110102;28;20130;-90
2023/06/15 12:26:53;;;;;;;2.97;1.65;;;29.10;50.50;;;;;;5110871;28;20130;-87
2023/06/15 12:29:20;;;;;;;2.60;1.30;;;29.30;52.00;;;;;;5127268;28;20039;-87
2023/06/15 12:31:51;;;;;;;1.85;1.13;;;29.30;50.90;;;;;;5110529;28;20077;-87
2023/06/15 12:34:25;;;;;;;2.33;1.27;;;29.40;50.10;;;;;;5094572;28;20082;-88
2023/06/15 12:36:52;;;;;;;1.95;1.52;;;29.30;49.60;;;;;;5109353;28;20047;-87
2023/06/15 12:39:18;;;;;;;4.10;1.88;;;29.30;49.60;;;;;;5110798;28;20039;-87
2023/06/15 12:41:44;;;;;;;2.22;1.48;;;29.30;48.90;;;;;;5109676;28;20525;-88
2023/06/15 12:44:11;;;;;;;3.80;1.42;;;29.30;48.60;;;;;;5127556;28;20077;-87
2023/06/15 12:46:38;;;;;;;2.70;1.42;;;29.30;48.50;;;;;;5110141;28;20085;-88
2023/06/15 12:49:07;;;;;;;3.15;1.17;;;29.20;49.00;;;;;;5109258;28;20040;-87
2023/06/15 12:51:33;;;;;;;3.35;1.35;;;29.20;49.40;;;;;;5127140;28;20074;-88
2023/06/15 12:54:01;;;;;;;2.45;1.30;;;29.10;48.70;;;;;;5109701;28;20136;-87
2023/06/15 12:56:27;;;;;;;3.28;1.48;;;29.00;49.50;;;;;;5119721;28;20419;-87
2023/06/15 12:58:56;;;;;;;3.58;1.73;;;29.10;49.70;;;;;;5112640;28;20043;-87
2023/06/15 13:01:22;;;;;;;2.17;1.58;;;29.20;49.30;;;;;;5114930;28;20205;-87
2023/06/15 13:03:48;;;;;;;3.53;1.35;;;29.20;49.10;;;;;;5079358;28;20047;-88
2023/06/15 13:06:15;;;;;;;2.30;1.58;;;29.30;49.50;;;;;;5095877;28;20043;-87
2023/06/15 13:08:40;;;;;;;6.13;1.90;;;29.40;50.50;;;;;;5113592;28;20059;-88
2023/06/15 13:11:06;;;;;;;3.33;1.25;;;29.30;51.60;;;;;;5113091;28;20043;-88
2023/06/15 13:13:32;;;;;;;2.20;1.38;;;29.20;52.40;;;;;;5119900;28;20537;-86
2023/06/15 13:15:58;;;;;;;3.28;1.63;;;29.10;52.50;;;;;;5106108;28;20373;-87
2023/06/15 13:18:25;;;;;;;2.90;1.35;;;29.00;52.80;;;;;;5098164;28;20427;-87
2023/06/15 13:20:52;;;;;;;2.67;1.73;;;28.80;52.40;;;;;;5114011;28;20079;-88
2023/06/15 13:23:18;;;;;;;2.78;1.48;;;28.80;53.00;;;;;;5097445;28;20058;-93
2023/06/15 13:25:44;;;;;;;2.72;1.30;;;28.80;52.60;;;;;;5090865;28;20039;-90
2023/06/15 13:28:10;;;;;;;2.15;1.17;;;28.70;52.90;;;;;;5091832;28;20044;-86
2023/06/15 13:30:36;;;;;;;1.63;1.10;;;28.70;53.40;;;;;;5100926;28;20042;-86
2023/06/15 13:33:02;;;;;;;1.88;1.20;;;29.20;53.50;;;;;;5112820;28;20055;-85
2023/06/15 13:35:28;;;;;;;2.30;1.45;;;28.50;53.20;;;;;;5112850;28;20085;-90
2023/06/15 13:37:55;;;;;;;1.92;1.17;;;28.50;53.60;;;;;;5096366;28;20043;-87
2023/06/15 13:40:20;;;;;;;4.78;1.42;;;28.40;53.50;;;;;;5078986;28;20518;-86
2023/06/15 13:42:46;;;;;;;2.63;1.00;;;28.20;53.50;;;;;;5062088;28;20067;-92
2023/06/15 13:45:16;;;;;;;2.42;0.90;;;28.20;53.40;;;;;;5078883;28;20556;-86
2023/06/15 13:47:44;;;;;;;2.17;1.13;;;28.10;53.30;;;;;;5112933;28;20039;-87
2023/06/15 13:50:12;;;;;;;3.58;1.42;;;28.30;54.20;;;;;;5112970;28;20130;-87
2023/06/15 13:52:39;;;;;;;4.38;1.40;;;28.40;53.70;;;;;;5112600;28;20062;-87
2023/06/15 13:55:07;;;;;;;2.25;1.13;;;28.40;53.30;;;;;;5093682;28;20130;-86
2023/06/15 13:57:34;;;;;;;2.60;1.23;;;28.40;53.50;;;;;;5112606;28;20043;-85
2023/06/15 14:00:00;;;;;;;2.70;1.52;;;28.20;53.10;;;;;;5110624;28;20073;-87
2023/06/15 14:02:27;;;;;;;1.70;1.42;;;28.10;53.30;;;;;;5113001;28;20061;-88